Aérodrome :
LOGIN :

S'inscrire | Disclaimer

   EN    FR    IT 

 










Légende :    VFR   VFR Marginal   IFR   IFR Intensif   IFR Très Intensif
Visi : 
Plafond : 
>= 8 km
>= 3000ft
5 à 8 km
1000 à 3000 ft
1500m à 5 km
500 à 1000 ft
800 à 1500m
200 à 500 ft
< 800m
< 200 ft
Symboles :   Orages  Brouillard  Fortes neiges  Fortes précipitations  Vent > 20 kt
SIGMETs :   Divers  Orages  Givrage  Turbulence  Onde Orograph.  Cendres Volcan.






- Altitude de l'aérodrome : 364 ft
- Code IATA : FRA


EDDF - Frankfurt Int.

DERNIER METAR :
  • 170320Z 04003KT 9999 BKN047 07/05 Q1020 NOSIG

METARs EXPIRÉS :
  • 170250Z 06003KT 010V080 9999 BKN047 07/05 Q1020 NOSIG
  • 170220Z 02004KT 9999 FEW045 BKN047 07/05 Q1020 NOSIG
  • 170150Z 01005KT 9999 BKN047 07/05 Q1021 NOSIG
  • 170120Z 03003KT 360V060 9999 BKN049 06/05 Q1021 NOSIG
  • 170050Z 03003KT 010V070 9999 SCT049 07/05 Q1021 NOSIG

TAF TAF EDDF
Valide du 17 à 00h jusqu'au 18 à 06h UTC


162300Z 1700/1806 VRB03KT 9999 BKN040
BECMG 1714/1718 FEW040
TEMPO 1803/1806 1200 BCFG



MET'MAP, la Météo Aéronautique d'un coup d'oeil ! - Copyright ORBIFLY Décembre 2007 - Disclaimer

ORBIFLY MET'MAP TEAM :

Programmation & Développement : Alexandra Zaïnal
Sur une idée originale de : Baudouin d'Aumeries
Assistance à la programmation : Marc-Olivier Méhu
Soutien technique & logistique : Manuel Goepfert

Contact : metmap@orbifly.com




SOURCES & CREDITS :

   NOAA